Terminal Aerodrome Forecast
Issued by NWS

Home | Current Version | Previous Version | Graphics & Text | Print | Product List | Glossary On
Versions: 1 2 3 4 5 6 7 8 9 10 11 12 13 14 15 16 17 18 19 20
000
FTUS43 KGRB 261600 AAA
TAFAUW
TAF AMD
KAUW 261629Z 2616/2712 15009KT 1 1/2SM -SN SCT017 OVC025
      TEMPO 2616/2620 3SM -SN BR OVC035
     FM262000 14005KT 3SM -SN BR SCT009 OVC015
     FM270500 VRB03KT 5SM BR OVC006
      TEMPO 2705/2709 5SM -FZDZSN=

USA.gov is the U.S. government's official web portal to all federal, state and local government web resources and services.